createdAt,value
2023-07-18T00:00:40.637Z,81.47
2023-07-18T00:03:10.138Z,106.20
2023-07-18T00:05:39.790Z,106.75
2023-07-18T00:08:09.482Z,94.93
2023-07-18T00:10:38.871Z,101.15
2023-07-18T00:13:09.721Z,113.53
2023-07-18T00:15:38.700Z,100.40
2023-07-18T00:18:09.106Z,105.28
2023-07-18T00:20:38.235Z,106.82
2023-07-18T00:23:08.328Z,101.38
2023-07-18T00:25:38.197Z,101.35
2023-07-18T00:28:08.115Z,103.95
2023-07-18T00:30:37.109Z,94.97
2023-07-18T00:33:06.150Z,106.70
2023-07-18T00:35:36.464Z,98.40
2023-07-18T00:38:05.417Z,92.60
2023-07-18T00:40:35.400Z,90.22
2023-07-18T00:43:04.498Z,93.38
2023-07-18T00:45:33.342Z,82.28
2023-07-18T00:48:02.692Z,81.47
2023-07-18T00:50:31.706Z,86.65
2023-07-18T00:53:03.098Z,88.18
2023-07-18T00:55:32.399Z,77.15
2023-07-18T00:58:05.682Z,87.07
2023-07-18T01:00:34.854Z,81.67
2023-07-18T01:03:03.808Z,79.85
2023-07-18T01:05:33.501Z,82.88
2023-07-18T01:08:03.069Z,78.72
2023-07-18T01:10:34.138Z,69.05
2023-07-18T01:13:03.806Z,85.18
2023-07-18T01:15:35.761Z,80.15
2023-07-18T01:20:35.463Z,85.82
2023-07-18T01:23:08.705Z,93.03
2023-07-18T01:25:39.496Z,100.95
2023-07-18T01:28:12.830Z,102.22
2023-07-18T01:30:44.819Z,92.97
2023-07-18T01:33:13.893Z,90.40
2023-07-18T01:35:43.180Z,83.68
2023-07-18T01:38:12.248Z,90.75
2023-07-18T01:40:41.012Z,87.57
2023-07-18T01:43:10.561Z,85.95
2023-07-18T01:45:40.366Z,79.43
2023-07-18T01:48:09.462Z,90.55
2023-07-18T01:50:38.433Z,84.90
2023-07-18T01:53:08.329Z,84.47
2023-07-18T01:55:38.016Z,86.82
2023-07-18T01:58:07.274Z,80.22
2023-07-18T02:00:40.062Z,79.85
2023-07-18T02:03:10.665Z,77.13
2023-07-18T02:05:40.331Z,77.85
2023-07-18T02:08:09.108Z,77.60
2023-07-18T02:10:38.356Z,72.22
2023-07-18T02:13:07.229Z,75.63
2023-07-18T02:15:36.538Z,78.47
2023-07-18T02:18:07.357Z,68.88
2023-07-18T02:20:36.376Z,61.67
2023-07-18T02:23:05.298Z,57.30
2023-07-18T02:25:34.988Z,63.00
2023-07-18T02:28:03.898Z,73.30
2023-07-18T02:30:33.112Z,66.88
2023-07-18T02:33:02.382Z,65.93
2023-07-18T02:35:32.476Z,59.50
2023-07-18T02:38:01.605Z,61.75
2023-07-18T02:40:30.561Z,49.85
2023-07-18T02:42:59.656Z,56.53
2023-07-18T02:45:28.461Z,53.28
2023-07-18T02:47:57.712Z,57.63
2023-07-18T02:50:26.711Z,56.55
2023-07-18T02:52:59.326Z,52.00
2023-07-18T02:55:29.739Z,64.57
2023-07-18T02:57:59.289Z,55.58
2023-07-18T03:00:28.248Z,56.22
2023-07-18T03:02:57.619Z,66.88
2023-07-18T03:05:26.885Z,54.95
2023-07-18T03:07:56.888Z,48.45
2023-07-18T03:10:26.772Z,47.60
2023-07-18T03:12:55.881Z,50.55
2023-07-18T03:15:24.788Z,53.92
2023-07-18T03:17:53.823Z,52.00
2023-07-18T03:20:26.237Z,41.42
2023-07-18T03:22:55.637Z,49.88
2023-07-18T03:25:24.467Z,58.88
2023-07-18T03:27:54.694Z,39.38
2023-07-18T03:30:23.693Z,43.83
2023-07-18T03:32:53.556Z,47.55
2023-07-18T03:35:22.550Z,41.75
2023-07-18T03:37:52.332Z,62.72
2023-07-18T03:40:23.648Z,51.15
2023-07-18T03:42:52.658Z,40.03
2023-07-18T03:45:21.450Z,45.15
2023-07-18T03:47:50.562Z,57.53
2023-07-18T03:50:20.213Z,43.88
2023-07-18T03:52:50.977Z,54.58
2023-07-18T03:55:20.329Z,43.28
2023-07-18T03:57:49.145Z,61.83
2023-07-18T04:00:20.237Z,46.50
2023-07-18T04:02:51.173Z,36.50
2023-07-18T04:05:21.038Z,37.97
2023-07-18T04:07:49.967Z,36.10
2023-07-18T04:10:19.104Z,39.38
2023-07-18T04:12:48.394Z,40.90
2023-07-18T04:15:17.977Z,39.63
2023-07-18T04:17:46.883Z,34.42
2023-07-18T04:20:16.838Z,37.55
2023-07-18T04:22:45.912Z,53.25
2023-07-18T04:25:18.256Z,41.38
2023-07-18T04:27:53.575Z,48.50
2023-07-18T04:30:26.215Z,37.65
2023-07-18T04:32:56.638Z,38.25
2023-07-18T04:35:26.579Z,33.67
2023-07-18T04:37:58.911Z,31.08
2023-07-18T04:40:28.853Z,36.90
2023-07-18T04:42:58.147Z,38.08
2023-07-18T04:45:27.216Z,30.55
2023-07-18T04:47:58.618Z,33.00
2023-07-18T04:50:30.139Z,34.55
2023-07-18T04:53:02.915Z,29.60
2023-07-18T04:55:33.359Z,27.45
2023-07-18T04:58:03.166Z,42.22
2023-07-18T05:00:33.598Z,29.17
2023-07-18T05:03:03.253Z,34.72
2023-07-18T05:05:32.701Z,40.08
2023-07-18T05:08:04.383Z,34.42
2023-07-18T05:10:33.577Z,30.17
2023-07-18T05:13:02.356Z,33.67
2023-07-18T05:15:31.479Z,38.00
2023-07-18T05:18:00.328Z,40.35
2023-07-18T05:20:30.855Z,55.40
2023-07-18T05:23:00.838Z,30.90
2023-07-18T05:25:30.248Z,43.90
2023-07-18T05:28:00.461Z,34.28
2023-07-18T05:30:29.515Z,59.65
2023-07-18T05:32:58.343Z,33.60
2023-07-18T05:35:27.433Z,30.55
2023-07-18T05:37:56.817Z,31.60
2023-07-18T05:40:26.027Z,35.67
2023-07-18T05:42:55.206Z,35.75
2023-07-18T05:45:24.365Z,36.95
2023-07-18T05:47:53.396Z,32.97
2023-07-18T05:50:25.476Z,36.63
2023-07-18T05:52:54.387Z,36.72
2023-07-18T05:55:23.266Z,33.83
2023-07-18T05:57:52.780Z,32.30
2023-07-18T06:00:23.043Z,31.23
2023-07-18T06:02:53.326Z,31.63
2023-07-18T06:05:23.454Z,45.92
2023-07-18T06:07:53.536Z,27.90
2023-07-18T06:10:23.370Z,32.30
2023-07-18T06:12:52.174Z,33.78
2023-07-18T06:15:21.853Z,35.03
2023-07-18T06:17:51.604Z,25.33
2023-07-18T06:20:22.062Z,31.48
2023-07-18T06:22:51.767Z,36.15
2023-07-18T06:25:20.817Z,26.88
2023-07-18T06:27:50.282Z,33.03
2023-07-18T06:30:22.305Z,28.02
2023-07-18T06:32:51.966Z,34.63
2023-07-18T06:35:24.060Z,28.42
2023-07-18T06:37:54.019Z,35.92
2023-07-18T06:40:23.692Z,31.98
2023-07-18T06:42:52.815Z,30.90
2023-07-18T06:45:21.885Z,28.90
2023-07-18T06:47:52.741Z,36.63
2023-07-18T06:50:22.190Z,36.67
2023-07-18T06:52:51.021Z,31.80
2023-07-18T06:55:23.007Z,26.38
2023-07-18T06:57:52.468Z,29.77
2023-07-18T07:00:24.280Z,28.38
2023-07-18T07:02:53.875Z,34.28
2023-07-18T07:05:26.514Z,52.42
2023-07-18T07:07:57.701Z,34.42
2023-07-18T07:10:28.136Z,28.48
2023-07-18T07:12:58.665Z,32.47
2023-07-18T07:15:29.802Z,33.03
2023-07-18T07:18:08.841Z,30.70
2023-07-18T07:20:41.371Z,25.85
2023-07-18T07:23:12.592Z,31.63
2023-07-18T07:25:47.177Z,31.98
2023-07-18T07:28:22.940Z,29.35
2023-07-18T07:31:04.544Z,33.00
2023-07-18T07:33:37.375Z,28.17
2023-07-18T07:36:07.698Z,36.55
2023-07-18T07:38:40.174Z,32.00
2023-07-18T07:41:12.419Z,26.60
2023-07-18T07:43:44.515Z,28.10
2023-07-18T07:46:18.081Z,36.65
2023-07-18T07:48:51.890Z,30.48
2023-07-18T07:51:25.331Z,31.50
2023-07-18T07:53:59.933Z,32.35
2023-07-18T07:56:30.656Z,22.17
2023-07-18T07:59:11.227Z,27.92
2023-07-18T08:01:44.175Z,32.63
2023-07-18T08:04:16.744Z,31.75
2023-07-18T08:06:49.291Z,30.42
2023-07-18T08:09:20.421Z,31.13
2023-07-18T08:11:52.681Z,27.13
2023-07-18T08:14:25.162Z,30.00
2023-07-18T08:16:57.220Z,35.25
2023-07-18T08:22:02.121Z,22.08
2023-07-18T08:24:33.931Z,26.80
2023-07-18T08:27:04.888Z,23.33
2023-07-18T08:29:38.545Z,22.77
2023-07-18T08:32:09.415Z,21.00
2023-07-18T08:34:41.936Z,23.42
2023-07-18T08:37:13.921Z,21.17
2023-07-18T08:39:45.665Z,28.05
2023-07-18T08:42:18.110Z,20.15
2023-07-18T08:44:53.797Z,30.33
2023-07-18T08:47:27.496Z,37.00
2023-07-18T08:49:58.311Z,38.65
2023-07-18T08:52:29.138Z,47.78
2023-07-18T08:55:00.425Z,45.00
2023-07-18T08:57:33.751Z,32.27
2023-07-18T09:00:11.513Z,23.95
2023-07-18T09:02:44.410Z,21.33
2023-07-18T09:05:41.585Z,28.13
2023-07-18T09:08:13.750Z,32.03
2023-07-18T09:10:44.504Z,20.98
2023-07-18T09:13:14.666Z,24.17
2023-07-18T09:15:45.414Z,23.15
2023-07-18T09:20:49.508Z,25.27
2023-07-18T09:23:21.550Z,25.38
2023-07-18T09:28:23.191Z,23.95
2023-07-18T09:30:54.379Z,11.00
2023-07-18T09:33:28.482Z,13.35
2023-07-18T09:36:01.595Z,15.73
2023-07-18T09:38:31.810Z,22.05
2023-07-18T09:41:14.017Z,20.55
2023-07-18T09:43:48.961Z,21.75
2023-07-18T09:46:21.213Z,20.50
2023-07-18T09:48:53.527Z,23.63
2023-07-18T09:51:33.968Z,21.50
2023-07-18T09:54:09.505Z,25.30
2023-07-18T09:56:42.558Z,20.58
2023-07-18T09:59:19.357Z,24.95
2023-07-18T10:01:54.501Z,27.67
2023-07-18T10:04:26.813Z,32.17
2023-07-18T10:06:58.222Z,23.67
2023-07-18T10:09:31.475Z,19.92
2023-07-18T10:12:03.864Z,20.45
2023-07-18T10:15:03.250Z,32.13
2023-07-18T10:17:43.638Z,26.30
2023-07-18T10:20:47.477Z,26.95
2023-07-18T10:23:21.664Z,30.42
2023-07-18T10:25:59.157Z,32.90
2023-07-18T10:28:45.558Z,49.65
2023-07-18T10:31:38.282Z,65.68
2023-07-18T10:34:14.988Z,31.52
2023-07-18T10:37:04.189Z,50.00
2023-07-18T10:40:02.779Z,35.05
2023-07-18T10:42:36.030Z,29.67
2023-07-18T10:45:09.946Z,29.15
2023-07-18T10:47:41.619Z,35.22
2023-07-18T10:50:12.442Z,61.17
2023-07-18T10:52:45.593Z,76.75
2023-07-18T10:55:17.967Z,42.75
2023-07-18T10:57:49.252Z,25.10
2023-07-18T11:00:22.152Z,27.10
2023-07-18T11:02:59.876Z,35.97
2023-07-18T11:05:32.283Z,106.22
2023-07-18T11:08:03.817Z,31.88
2023-07-18T11:10:39.807Z,30.33
2023-07-18T11:13:10.550Z,29.13
2023-07-18T11:15:41.850Z,26.95
2023-07-18T11:18:13.651Z,32.28
2023-07-18T11:20:48.911Z,85.85
2023-07-18T11:23:24.266Z,66.30
2023-07-18T11:26:21.101Z,31.80
2023-07-18T11:28:58.315Z,28.15
2023-07-18T11:31:48.633Z,34.22
2023-07-18T11:34:26.946Z,25.23
2023-07-18T11:36:59.602Z,35.33
2023-07-18T11:39:36.033Z,32.70
2023-07-18T11:42:11.854Z,32.97
2023-07-18T11:44:47.519Z,30.98
2023-07-18T11:47:19.693Z,35.15
2023-07-18T11:49:50.097Z,35.90
2023-07-18T11:52:23.022Z,35.28
2023-07-18T11:54:54.832Z,33.38
2023-07-18T11:57:25.646Z,31.33
2023-07-18T11:59:57.497Z,36.63
2023-07-18T12:02:30.351Z,53.58
2023-07-18T12:05:01.877Z,43.40
2023-07-18T12:07:33.738Z,43.40
2023-07-18T12:10:09.939Z,48.80
2023-07-18T12:12:42.446Z,36.67
2023-07-18T12:15:15.405Z,41.08
2023-07-18T12:17:47.024Z,44.83
2023-07-18T12:20:18.157Z,43.90
2023-07-18T12:22:48.332Z,44.40
2023-07-18T12:25:18.877Z,38.10
2023-07-18T12:27:49.314Z,37.53
2023-07-18T12:30:19.679Z,40.67
2023-07-18T12:32:49.939Z,32.63
2023-07-18T12:35:20.876Z,34.90
2023-07-18T12:37:51.483Z,29.77
2023-07-18T12:40:22.317Z,25.52
2023-07-18T12:42:55.236Z,32.35
2023-07-18T12:45:27.340Z,25.48
2023-07-18T12:47:57.544Z,26.83
2023-07-18T12:50:28.836Z,30.35
2023-07-18T12:53:01.054Z,26.38
2023-07-18T12:58:00.862Z,36.97
2023-07-18T13:00:30.436Z,27.98
2023-07-18T13:03:00.757Z,28.75
2023-07-18T13:05:30.059Z,26.27
2023-07-18T13:07:59.001Z,29.85
2023-07-18T13:10:28.111Z,25.23
2023-07-18T13:12:57.120Z,25.77
2023-07-18T13:15:26.288Z,28.30
2023-07-18T13:17:55.378Z,27.38
2023-07-18T13:20:24.863Z,24.05
2023-07-18T13:22:53.845Z,28.92
2023-07-18T13:25:24.176Z,26.42
2023-07-18T13:27:52.908Z,24.27
2023-07-18T13:30:24.434Z,26.65
2023-07-18T13:32:53.567Z,29.48
2023-07-18T13:35:22.403Z,32.05
2023-07-18T13:37:51.620Z,42.25
2023-07-18T13:40:20.475Z,43.20
2023-07-18T13:42:51.175Z,40.53
2023-07-18T13:45:20.198Z,35.90
2023-07-18T13:47:49.076Z,36.63
2023-07-18T13:52:59.659Z,41.85
2023-07-18T13:55:29.171Z,48.05
2023-07-18T13:57:58.125Z,38.63
2023-07-18T14:00:27.094Z,42.42
2023-07-18T14:02:56.152Z,35.05
2023-07-18T14:05:26.344Z,42.05
2023-07-18T14:07:58.039Z,35.17
2023-07-18T14:10:27.184Z,32.92
2023-07-18T14:12:58.238Z,41.80
2023-07-18T14:15:30.617Z,37.10
2023-07-18T14:18:03.004Z,39.88
2023-07-18T14:20:36.824Z,44.50
2023-07-18T14:23:10.200Z,43.63
2023-07-18T14:25:42.435Z,40.67
2023-07-18T14:28:15.688Z,44.90
2023-07-18T14:30:48.099Z,37.83
2023-07-18T14:33:21.439Z,46.67
2023-07-18T14:35:54.557Z,45.30
2023-07-18T14:38:27.920Z,44.45
2023-07-18T14:41:00.509Z,38.38
2023-07-18T14:43:37.599Z,36.78
2023-07-18T14:46:11.424Z,42.40
2023-07-18T14:48:44.068Z,63.83
2023-07-18T14:51:18.139Z,53.40
2023-07-18T14:53:51.679Z,44.00
2023-07-18T14:56:27.209Z,42.95
2023-07-18T14:59:00.167Z,44.53
2023-07-18T15:01:33.541Z,49.72
2023-07-18T15:04:06.828Z,46.85
2023-07-18T15:06:40.233Z,48.33
2023-07-18T15:09:13.573Z,47.80
2023-07-18T15:11:47.418Z,49.15
2023-07-18T15:14:21.450Z,48.05
2023-07-18T15:16:53.635Z,45.15
2023-07-18T15:19:33.774Z,46.70
2023-07-18T15:22:06.830Z,51.72
2023-07-18T15:24:40.764Z,46.70
2023-07-18T15:27:14.646Z,103.05
2023-07-18T15:29:47.813Z,54.40
2023-07-18T15:32:21.785Z,50.28
2023-07-18T15:34:55.020Z,48.88
2023-07-18T15:37:29.447Z,51.72
2023-07-18T15:40:04.557Z,53.50
2023-07-18T15:42:38.847Z,59.22
2023-07-18T15:45:13.338Z,59.00
2023-07-18T15:47:48.331Z,57.67
2023-07-18T15:50:23.745Z,65.88
2023-07-18T15:52:57.734Z,53.92
2023-07-18T15:55:30.913Z,62.58
2023-07-18T15:58:05.116Z,53.47
2023-07-18T16:00:37.924Z,54.58
2023-07-18T16:03:11.267Z,57.65
2023-07-18T16:05:43.661Z,54.05
2023-07-18T16:08:17.690Z,60.05
2023-07-18T16:10:51.678Z,50.92
2023-07-18T16:13:25.032Z,50.08
2023-07-18T16:15:59.150Z,50.47
2023-07-18T16:18:33.788Z,54.08
2023-07-18T16:21:06.691Z,51.55
2023-07-18T16:23:41.350Z,48.72
2023-07-18T16:26:13.670Z,48.45
2023-07-18T16:28:47.186Z,57.35
2023-07-18T16:31:24.436Z,55.08
2023-07-18T16:33:58.382Z,63.53
2023-07-18T16:36:31.483Z,59.47
2023-07-18T16:39:05.873Z,62.25
2023-07-18T16:41:42.296Z,56.13
2023-07-18T16:44:19.918Z,47.70
2023-07-18T16:46:53.327Z,48.08
2023-07-18T16:49:27.488Z,50.38
2023-07-18T16:52:01.430Z,46.30
2023-07-18T16:54:35.128Z,52.25
2023-07-18T16:57:08.741Z,52.10
2023-07-18T16:59:42.724Z,48.45
2023-07-18T17:02:16.494Z,52.42
2023-07-18T17:04:49.936Z,47.58
2023-07-18T17:07:23.041Z,53.67
2023-07-18T17:09:56.513Z,52.38
2023-07-18T17:12:30.252Z,51.88
2023-07-18T17:15:05.651Z,48.88
2023-07-18T17:17:38.947Z,44.60
2023-07-18T17:20:14.346Z,45.15
2023-07-18T17:22:46.971Z,49.08
2023-07-18T17:25:24.798Z,52.33
2023-07-18T17:27:57.748Z,50.78
2023-07-18T17:30:31.316Z,48.00
2023-07-18T17:33:05.660Z,47.65
2023-07-18T17:35:43.859Z,49.33
2023-07-18T17:38:17.041Z,49.60
2023-07-18T17:40:51.732Z,46.83
2023-07-18T17:43:24.644Z,47.15
2023-07-18T17:45:57.839Z,44.28
2023-07-18T17:48:31.405Z,51.42
2023-07-18T17:51:10.933Z,44.33
2023-07-18T17:53:43.001Z,54.50
2023-07-18T17:56:16.833Z,55.03
2023-07-18T17:58:49.976Z,45.47
2023-07-18T18:01:22.943Z,49.65
2023-07-18T18:03:57.513Z,48.85
2023-07-18T18:06:34.631Z,53.22
2023-07-18T18:09:07.968Z,46.88
2023-07-18T18:11:40.966Z,48.05
2023-07-18T18:14:13.274Z,48.97
2023-07-18T18:16:46.530Z,49.95
2023-07-18T18:19:21.703Z,44.40
2023-07-18T18:21:55.302Z,45.20
2023-07-18T18:24:28.675Z,43.33
2023-07-18T18:27:02.971Z,41.83
2023-07-18T18:29:36.136Z,42.88
2023-07-18T18:32:10.186Z,52.95
2023-07-18T18:34:56.671Z,45.40
2023-07-18T18:37:39.202Z,45.10
2023-07-18T18:40:13.601Z,41.65
2023-07-18T18:42:46.563Z,41.75
2023-07-18T18:45:21.864Z,43.90
2023-07-18T18:47:58.595Z,40.75
2023-07-18T18:50:30.973Z,42.03
2023-07-18T18:53:03.624Z,38.25
2023-07-18T18:55:36.535Z,44.03
2023-07-18T18:58:14.479Z,51.67
2023-07-18T19:00:47.999Z,49.17
2023-07-18T19:03:21.678Z,46.60
2023-07-18T19:05:55.033Z,50.90
2023-07-18T19:08:28.018Z,48.45
2023-07-18T19:11:08.038Z,41.13
2023-07-18T19:13:43.007Z,44.30
2023-07-18T19:16:28.855Z,40.17
2023-07-18T19:19:14.545Z,42.63
2023-07-18T19:21:49.062Z,45.85
2023-07-18T19:24:23.015Z,47.20
2023-07-18T19:26:57.680Z,39.78
2023-07-18T19:29:31.466Z,47.15
2023-07-18T19:32:05.187Z,43.72
2023-07-18T19:34:41.104Z,40.72
2023-07-18T19:37:18.683Z,42.80
2023-07-18T19:39:52.514Z,44.78
2023-07-18T19:42:26.413Z,45.28
2023-07-18T19:45:00.254Z,45.20
2023-07-18T19:47:34.916Z,45.95
2023-07-18T19:50:11.084Z,44.53
2023-07-18T19:52:45.625Z,47.00
2023-07-18T19:55:19.114Z,49.03
2023-07-18T19:57:52.477Z,46.38
2023-07-18T20:00:26.274Z,39.65
2023-07-18T20:03:00.774Z,46.80
2023-07-18T20:05:36.592Z,46.13
2023-07-18T20:08:10.570Z,47.42
2023-07-18T20:10:40.187Z,46.00
2023-07-18T20:13:10.142Z,51.58
2023-07-18T20:15:39.324Z,46.75
2023-07-18T20:18:08.755Z,45.38
2023-07-18T20:20:38.274Z,41.85
2023-07-18T20:23:07.477Z,48.40
2023-07-18T20:25:36.794Z,43.92
2023-07-18T20:28:06.580Z,44.67
2023-07-18T20:30:37.100Z,43.67
2023-07-18T20:33:06.374Z,45.75
2023-07-18T20:35:35.255Z,47.08
2023-07-18T20:38:05.010Z,38.08
2023-07-18T20:40:33.736Z,42.90
2023-07-18T20:43:02.825Z,39.72
2023-07-18T20:45:31.846Z,47.95
2023-07-18T20:48:02.149Z,44.08
2023-07-18T20:50:34.813Z,47.13
2023-07-18T20:53:03.854Z,42.40
2023-07-18T20:55:33.247Z,40.03
2023-07-18T20:58:02.976Z,44.70
2023-07-18T21:00:31.747Z,39.75
2023-07-18T21:03:03.868Z,40.42
2023-07-18T21:05:33.185Z,37.70
2023-07-18T21:08:04.211Z,42.97
2023-07-18T21:10:34.448Z,48.63
2023-07-18T21:13:07.382Z,40.83
2023-07-18T21:15:38.292Z,37.33
2023-07-18T21:18:07.350Z,37.42
2023-07-18T21:20:36.660Z,39.67
2023-07-18T21:23:05.937Z,39.63
2023-07-18T21:25:35.543Z,41.58
2023-07-18T21:28:04.993Z,42.10
2023-07-18T21:30:34.032Z,37.75
2023-07-18T21:33:02.950Z,40.63
2023-07-18T21:35:32.436Z,37.03
2023-07-18T21:38:01.227Z,38.35
2023-07-18T21:40:30.389Z,39.78
2023-07-18T21:42:59.258Z,38.65
2023-07-18T21:45:28.458Z,40.17
2023-07-18T21:47:57.421Z,38.30
2023-07-18T21:50:26.655Z,39.55
2023-07-18T21:52:55.528Z,34.42
2023-07-18T21:55:24.814Z,43.33
2023-07-18T21:57:53.656Z,37.70
2023-07-18T22:00:22.801Z,41.25
2023-07-18T22:02:51.746Z,36.05
2023-07-18T22:05:20.989Z,41.33
2023-07-18T22:07:49.800Z,35.83
2023-07-18T22:10:18.954Z,35.67
2023-07-18T22:12:47.985Z,41.67
2023-07-18T22:15:17.598Z,38.28
2023-07-18T22:17:48.017Z,39.17
2023-07-18T22:20:16.832Z,43.15
2023-07-18T22:22:45.994Z,36.00
2023-07-18T22:25:15.048Z,35.60
2023-07-18T22:27:44.064Z,36.28
2023-07-18T22:30:13.129Z,36.90
2023-07-18T22:32:42.444Z,39.47
2023-07-18T22:35:11.172Z,36.40
2023-07-18T22:37:40.175Z,36.83
2023-07-18T22:40:09.577Z,36.58
2023-07-18T22:42:38.748Z,38.33
2023-07-18T22:45:07.943Z,38.67
2023-07-18T22:47:37.085Z,34.30
2023-07-18T22:50:09.392Z,38.78
2023-07-18T22:52:38.479Z,39.30
2023-07-18T22:55:07.722Z,33.78
2023-07-18T22:57:36.825Z,34.83
2023-07-18T23:00:07.028Z,38.92
2023-07-18T23:02:36.696Z,39.28
2023-07-18T23:05:05.796Z,38.65
2023-07-18T23:07:36.681Z,38.22
2023-07-18T23:10:05.968Z,38.20
2023-07-18T23:12:34.820Z,37.38
2023-07-18T23:15:03.847Z,35.40
2023-07-18T23:17:32.686Z,38.38
2023-07-18T23:20:01.918Z,38.03
2023-07-18T23:22:30.946Z,32.97
2023-07-18T23:24:59.980Z,38.42
2023-07-18T23:27:28.763Z,39.92
2023-07-18T23:29:57.858Z,38.13
2023-07-18T23:32:26.746Z,41.25
2023-07-18T23:34:55.799Z,41.72
2023-07-18T23:37:25.008Z,43.15
2023-07-18T23:39:58.672Z,40.65
2023-07-18T23:42:28.950Z,40.58
2023-07-18T23:44:57.848Z,38.90
2023-07-18T23:47:26.845Z,41.78
2023-07-18T23:49:55.823Z,38.38
2023-07-18T23:52:24.675Z,42.58
2023-07-18T23:54:53.910Z,46.90
2023-07-18T23:57:23.949Z,40.97
2023-07-18T23:59:53.076Z,47.40
